createdAt,value
2022-08-03T00:02:20.895Z,67.04
2022-08-03T00:04:49.278Z,67.12
2022-08-03T00:07:17.342Z,67.10
2022-08-03T00:09:45.957Z,67.03
2022-08-03T00:12:14.558Z,67.03
2022-08-03T00:14:43.199Z,67.20
2022-08-03T00:17:11.506Z,67.41
2022-08-03T00:19:39.553Z,67.73
2022-08-03T00:22:07.724Z,68.22
2022-08-03T00:24:36.619Z,68.09
2022-08-03T00:27:04.685Z,68.17
2022-08-03T00:29:32.772Z,68.05
2022-08-03T00:32:00.941Z,67.98
2022-08-03T00:34:36.546Z,67.94
2022-08-03T00:37:17.348Z,68.32
2022-08-03T00:39:47.507Z,68.29
2022-08-03T00:42:16.167Z,68.43
2022-08-03T00:44:45.665Z,68.45
2022-08-03T00:47:13.790Z,68.62
2022-08-03T00:49:42.548Z,68.54
2022-08-03T00:52:11.883Z,68.44
2022-08-03T00:54:40.453Z,68.15
2022-08-03T00:57:08.682Z,67.95
2022-08-03T00:59:38.501Z,67.75
2022-08-03T01:02:06.975Z,67.69
2022-08-03T01:04:35.257Z,67.51
2022-08-03T01:07:12.438Z,67.53
2022-08-03T01:09:49.418Z,67.81
2022-08-03T01:12:22.958Z,67.37
2022-08-03T01:14:56.216Z,67.44
2022-08-03T01:17:57.724Z,67.78
2022-08-03T01:20:29.994Z,68.08
2022-08-03T01:23:28.843Z,68.21
2022-08-03T01:26:06.325Z,68.45
2022-08-03T01:29:11.469Z,68.41
2022-08-03T01:32:53.557Z,68.50
2022-08-03T01:34:52.075Z,68.36
2022-08-03T01:37:26.686Z,68.30
2022-08-03T01:39:57.618Z,68.42
2022-08-03T01:42:27.589Z,68.57
2022-08-03T01:44:58.169Z,69.16
2022-08-03T01:47:29.099Z,69.41
2022-08-03T01:49:58.494Z,69.33
2022-08-03T01:52:27.782Z,69.68
2022-08-03T01:54:57.000Z,69.90
2022-08-03T01:57:27.011Z,69.88
2022-08-03T01:59:57.978Z,69.97
2022-08-03T02:02:33.016Z,70.16
2022-08-03T02:05:10.688Z,70.37
2022-08-03T02:07:41.916Z,70.44
2022-08-03T02:10:13.399Z,70.48
2022-08-03T02:12:45.948Z,70.34
2022-08-03T02:15:18.551Z,70.31
2022-08-03T02:17:47.967Z,70.08
2022-08-03T02:20:17.253Z,70.09
2022-08-03T02:22:46.961Z,69.88
2022-08-03T02:25:16.156Z,69.61
2022-08-03T02:27:53.145Z,69.59
2022-08-03T02:30:24.319Z,69.68
2022-08-03T02:32:56.450Z,69.69
2022-08-03T02:35:27.524Z,69.60
2022-08-03T02:38:02.423Z,69.58
2022-08-03T02:40:32.321Z,69.59
2022-08-03T02:43:12.192Z,69.69
2022-08-03T02:45:45.618Z,69.68
2022-08-03T02:48:19.047Z,69.66
2022-08-03T02:50:48.561Z,69.77
2022-08-03T02:53:18.513Z,69.76
2022-08-03T02:55:49.544Z,69.61
2022-08-03T02:58:21.295Z,69.65
2022-08-03T03:00:54.117Z,69.59
2022-08-03T03:03:23.178Z,69.82
2022-08-03T03:05:57.703Z,70.20
2022-08-03T03:08:29.244Z,70.24
2022-08-03T03:11:00.318Z,70.17
2022-08-03T03:13:32.599Z,70.31
2022-08-03T03:16:02.818Z,70.51
2022-08-03T03:18:34.834Z,70.81
2022-08-03T03:21:04.463Z,70.73
2022-08-03T03:23:36.738Z,70.29
2022-08-03T03:26:06.387Z,70.15
2022-08-03T03:28:37.486Z,70.73
2022-08-03T03:31:07.810Z,70.69
2022-08-03T03:33:37.342Z,70.82
2022-08-03T03:36:06.969Z,71.02
2022-08-03T03:38:35.403Z,70.86
2022-08-03T03:41:05.148Z,70.59
2022-08-03T03:43:33.740Z,70.55
2022-08-03T03:46:02.283Z,70.43
2022-08-03T03:48:30.353Z,70.41
2022-08-03T03:51:01.498Z,70.27
2022-08-03T03:53:29.775Z,70.16
2022-08-03T03:56:01.794Z,69.94
2022-08-03T03:58:32.652Z,69.76
2022-08-03T04:01:01.812Z,69.82
2022-08-03T04:03:30.565Z,69.54
2022-08-03T04:06:17.625Z,69.52
2022-08-03T04:09:04.345Z,69.43
2022-08-03T04:11:39.835Z,68.85
2022-08-03T04:14:22.954Z,68.73
2022-08-03T04:16:55.843Z,68.72
2022-08-03T04:19:23.838Z,68.71
2022-08-03T04:21:57.146Z,68.46
2022-08-03T04:24:31.239Z,68.79
2022-08-03T04:27:02.876Z,69.01
2022-08-03T04:29:35.189Z,69.18
2022-08-03T04:32:08.368Z,69.32
2022-08-03T04:34:36.612Z,69.33
2022-08-03T04:37:12.361Z,69.60
2022-08-03T04:39:43.176Z,69.58
2022-08-03T04:42:14.697Z,69.74
2022-08-03T04:44:46.039Z,69.63
2022-08-03T04:47:14.384Z,69.62
2022-08-03T04:49:43.845Z,69.51
2022-08-03T04:52:12.262Z,69.49
2022-08-03T04:54:50.076Z,69.37
2022-08-03T04:57:23.220Z,69.56
2022-08-03T05:00:02.252Z,69.40
2022-08-03T05:02:32.373Z,69.10
2022-08-03T05:05:00.766Z,69.07
2022-08-03T05:07:35.575Z,69.26
2022-08-03T05:10:15.877Z,68.90
2022-08-03T05:12:48.349Z,68.96
2022-08-03T05:15:16.621Z,68.96
2022-08-03T05:17:44.932Z,68.79
2022-08-03T05:20:13.176Z,68.64
2022-08-03T05:22:44.647Z,68.13
2022-08-03T05:25:19.785Z,67.90
2022-08-03T05:27:48.981Z,67.90
2022-08-03T05:30:31.239Z,67.99
2022-08-03T05:33:04.049Z,67.47
2022-08-03T05:36:01.010Z,66.92
2022-08-03T05:38:23.920Z,66.92
2022-08-03T05:41:21.214Z,66.58
2022-08-03T05:43:46.839Z,66.18
2022-08-03T05:46:14.889Z,65.79
2022-08-03T05:48:43.590Z,65.12
2022-08-03T05:51:12.220Z,64.69
2022-08-03T05:53:42.697Z,64.71
2022-08-03T05:56:14.040Z,64.92
2022-08-03T05:58:45.677Z,64.46
2022-08-03T06:01:14.377Z,64.37
2022-08-03T06:03:42.862Z,64.04
2022-08-03T06:06:11.906Z,64.07
2022-08-03T06:08:41.293Z,63.76
2022-08-03T06:11:10.356Z,63.31
2022-08-03T06:13:38.939Z,63.83
2022-08-03T06:16:07.323Z,63.49
2022-08-03T06:18:36.108Z,62.67
2022-08-03T06:21:14.124Z,63.05
2022-08-03T06:23:52.851Z,63.18
2022-08-03T06:26:28.040Z,62.62
2022-08-03T06:28:56.440Z,62.40
2022-08-03T06:31:33.435Z,61.87
2022-08-03T06:34:33.714Z,62.16
2022-08-03T06:36:53.533Z,61.80
2022-08-03T06:39:23.573Z,61.76
2022-08-03T06:41:53.213Z,61.48
2022-08-03T06:44:21.564Z,61.53
2022-08-03T06:46:49.851Z,61.68
2022-08-03T06:49:18.057Z,62.00
2022-08-03T06:52:04.288Z,62.15
2022-08-03T06:54:36.220Z,61.45
2022-08-03T06:57:06.115Z,60.71
2022-08-03T07:00:10.172Z,60.43
2022-08-03T07:02:22.531Z,60.51
2022-08-03T07:04:50.660Z,60.04
2022-08-03T07:07:19.574Z,60.18
2022-08-03T07:09:56.338Z,60.17
2022-08-03T07:12:30.648Z,59.40
2022-08-03T07:15:02.228Z,59.01
2022-08-03T07:17:36.359Z,59.34
2022-08-03T07:20:07.472Z,58.84
2022-08-03T07:22:35.942Z,58.77
2022-08-03T07:25:05.111Z,58.63
2022-08-03T07:27:33.913Z,57.56
2022-08-03T07:30:02.253Z,57.04
2022-08-03T07:32:31.775Z,57.33
2022-08-03T07:35:01.066Z,57.63
2022-08-03T07:37:31.179Z,57.39
2022-08-03T07:40:04.377Z,57.30
2022-08-03T07:42:32.599Z,57.60
2022-08-03T07:45:00.981Z,57.31
2022-08-03T07:47:35.746Z,57.00
2022-08-03T07:50:06.576Z,56.54
2022-08-03T07:52:49.918Z,56.40
2022-08-03T07:55:23.776Z,54.53
2022-08-03T07:58:05.570Z,53.08
2022-08-03T08:00:34.261Z,53.35
2022-08-03T08:03:03.045Z,52.35
2022-08-03T08:05:31.737Z,52.75
2022-08-03T08:08:01.188Z,51.19
2022-08-03T08:10:30.435Z,51.92
2022-08-03T08:12:58.818Z,50.65
2022-08-03T08:15:26.891Z,50.43
2022-08-03T08:17:56.581Z,50.84
2022-08-03T08:20:30.714Z,50.74
2022-08-03T08:23:03.431Z,49.54
2022-08-03T08:25:32.800Z,49.98
2022-08-03T08:28:31.372Z,48.64
2022-08-03T08:30:51.258Z,49.15
2022-08-03T08:33:23.338Z,47.55
2022-08-03T08:35:53.779Z,46.35
2022-08-03T08:38:23.363Z,45.53
2022-08-03T08:40:51.532Z,46.06
2022-08-03T08:43:19.711Z,45.65
2022-08-03T08:45:52.594Z,46.44
2022-08-03T08:48:25.283Z,45.72
2022-08-03T08:50:55.887Z,44.29
2022-08-03T08:53:29.065Z,44.79
2022-08-03T08:56:02.378Z,46.00
2022-08-03T08:58:47.360Z,46.75
2022-08-03T09:01:19.078Z,45.37
2022-08-03T09:03:48.005Z,45.67
2022-08-03T09:06:17.045Z,45.21
2022-08-03T09:08:45.177Z,44.47
2022-08-03T09:11:13.347Z,45.07
2022-08-03T09:13:42.160Z,44.97
2022-08-03T09:16:13.383Z,44.77
2022-08-03T09:18:54.615Z,44.19
2022-08-03T09:21:33.924Z,43.40
2022-08-03T09:24:07.040Z,42.77
2022-08-03T09:26:38.396Z,43.12
2022-08-03T09:29:14.969Z,43.25
2022-08-03T09:31:46.197Z,43.19
2022-08-03T09:34:17.099Z,43.23
2022-08-03T09:36:47.825Z,44.03
2022-08-03T09:39:19.144Z,43.45
2022-08-03T09:42:07.627Z,42.70
2022-08-03T09:44:44.913Z,42.32
2022-08-03T09:47:16.644Z,42.14
2022-08-03T09:49:59.002Z,41.76
2022-08-03T09:52:49.414Z,41.07
2022-08-03T09:56:32.722Z,41.28
2022-08-03T09:58:10.802Z,41.63
2022-08-03T10:00:57.560Z,40.39
2022-08-03T10:03:31.512Z,39.94
2022-08-03T10:06:14.245Z,39.34
2022-08-03T10:08:42.519Z,38.32
2022-08-03T10:11:10.678Z,37.08
2022-08-03T10:13:40.126Z,36.81
2022-08-03T10:16:23.237Z,36.84
2022-08-03T10:18:54.128Z,37.12
2022-08-03T10:21:22.660Z,36.92
2022-08-03T10:23:53.650Z,36.49
2022-08-03T10:26:26.452Z,35.50
2022-08-03T10:28:58.892Z,35.68
2022-08-03T10:31:54.516Z,35.20
2022-08-03T10:34:29.800Z,34.95
2022-08-03T10:37:00.351Z,34.53
2022-08-03T10:39:30.446Z,34.84
2022-08-03T10:41:59.946Z,35.07
2022-08-03T10:44:39.972Z,34.22
2022-08-03T10:47:10.430Z,33.42
2022-08-03T10:49:39.308Z,33.14
2022-08-03T10:52:13.853Z,33.28
2022-08-03T10:55:14.792Z,33.11
2022-08-03T10:57:56.216Z,32.66
2022-08-03T11:00:30.550Z,31.72
2022-08-03T11:03:12.179Z,31.94
2022-08-03T11:05:41.584Z,32.10
2022-08-03T11:08:48.576Z,30.82
2022-08-03T11:11:19.404Z,32.23
2022-08-03T11:14:01.898Z,31.30
2022-08-03T11:16:31.851Z,32.04
2022-08-03T11:19:01.748Z,31.40
2022-08-03T11:21:52.239Z,31.44
2022-08-03T11:24:39.565Z,31.18
2022-08-03T11:27:17.515Z,30.98
2022-08-03T11:30:07.561Z,30.54
2022-08-03T11:32:38.707Z,30.09
2022-08-03T11:35:15.580Z,29.43
2022-08-03T11:38:03.026Z,28.78
2022-08-03T11:40:33.125Z,29.17
2022-08-03T11:43:02.011Z,29.42
2022-08-03T11:45:31.413Z,29.01
2022-08-03T11:48:13.110Z,28.63
2022-08-03T11:50:45.346Z,27.59
2022-08-03T11:53:18.832Z,28.10
2022-08-03T11:55:51.252Z,28.58
2022-08-03T11:59:18.814Z,28.66
2022-08-03T12:01:11.588Z,28.07
2022-08-03T12:03:39.938Z,27.49
2022-08-03T12:06:13.268Z,27.24
2022-08-03T12:08:43.253Z,27.78
2022-08-03T12:11:13.937Z,27.58
2022-08-03T12:14:32.971Z,27.77
2022-08-03T12:16:39.515Z,26.32
2022-08-03T12:19:08.397Z,26.79
2022-08-03T12:21:57.147Z,25.98
2022-08-03T12:24:28.723Z,26.90
2022-08-03T12:26:59.975Z,27.29
2022-08-03T12:29:29.058Z,27.70
2022-08-03T12:31:57.303Z,27.13
2022-08-03T12:34:47.318Z,26.31
2022-08-03T12:37:23.672Z,25.92
2022-08-03T12:40:03.066Z,26.33
2022-08-03T12:42:37.285Z,26.64
2022-08-03T12:45:28.556Z,26.00
2022-08-03T12:48:01.912Z,26.10
2022-08-03T12:50:34.839Z,26.83
2022-08-03T12:53:07.963Z,27.15
2022-08-03T12:55:57.201Z,26.47
2022-08-03T12:58:34.404Z,26.35
2022-08-03T13:01:09.471Z,26.13
2022-08-03T13:03:43.496Z,26.82
2022-08-03T13:06:16.149Z,26.10
2022-08-03T13:08:46.152Z,26.12
2022-08-03T13:11:20.588Z,26.42
2022-08-03T13:13:49.336Z,26.06
2022-08-03T13:16:19.450Z,25.72
2022-08-03T13:18:49.034Z,25.39
2022-08-03T13:21:19.738Z,25.71
2022-08-03T13:23:48.408Z,25.47
2022-08-03T13:26:16.430Z,25.41
2022-08-03T13:28:44.628Z,25.13
2022-08-03T13:31:13.002Z,25.90
2022-08-03T13:33:41.424Z,25.96
2022-08-03T13:36:09.557Z,25.37
2022-08-03T13:38:37.818Z,25.79
2022-08-03T13:41:06.312Z,25.67
2022-08-03T13:43:34.493Z,25.61
2022-08-03T13:46:02.664Z,25.14
2022-08-03T13:48:34.748Z,25.83
2022-08-03T13:51:21.695Z,25.05
2022-08-03T13:53:52.487Z,25.47
2022-08-03T13:56:20.753Z,24.86
2022-08-03T13:58:48.848Z,24.60
2022-08-03T14:01:18.565Z,24.66
2022-08-03T14:03:54.494Z,25.19
2022-08-03T14:06:24.329Z,25.31
2022-08-03T14:08:52.710Z,25.94
2022-08-03T14:11:20.963Z,26.32
2022-08-03T14:13:49.018Z,25.30
2022-08-03T14:16:17.209Z,24.46
2022-08-03T14:18:46.099Z,25.16
2022-08-03T14:21:14.480Z,24.81
2022-08-03T14:23:42.573Z,25.46
2022-08-03T14:26:14.719Z,26.32
2022-08-03T14:28:42.813Z,26.14
2022-08-03T14:32:09.047Z,25.19
2022-08-03T14:33:59.102Z,25.32
2022-08-03T14:36:27.277Z,24.27
2022-08-03T14:39:00.814Z,24.73
2022-08-03T14:41:29.773Z,25.27
2022-08-03T14:44:01.056Z,26.02
2022-08-03T14:46:30.870Z,25.60
2022-08-03T14:50:34.886Z,24.87
2022-08-03T14:51:51.569Z,24.44
2022-08-03T14:54:23.127Z,24.45
2022-08-03T14:56:51.789Z,24.04
2022-08-03T14:59:19.777Z,24.41
2022-08-03T15:02:05.446Z,23.99
2022-08-03T15:04:36.016Z,24.44
2022-08-03T15:07:04.760Z,24.36
2022-08-03T15:09:33.443Z,24.29
2022-08-03T15:12:01.927Z,24.53
2022-08-03T15:14:33.110Z,24.94
2022-08-03T15:17:01.863Z,25.16
2022-08-03T15:20:03.568Z,25.41
2022-08-03T15:22:20.710Z,25.04
2022-08-03T15:24:53.128Z,24.59
2022-08-03T15:27:21.362Z,24.93
2022-08-03T15:30:09.065Z,25.32
2022-08-03T15:32:38.419Z,25.67
2022-08-03T15:35:07.620Z,26.11
2022-08-03T15:37:35.895Z,25.31
2022-08-03T15:40:04.987Z,26.27
2022-08-03T15:42:34.084Z,26.43
2022-08-03T15:45:02.259Z,26.14
2022-08-03T15:47:30.252Z,26.05
2022-08-03T15:49:58.406Z,26.82
2022-08-03T15:52:26.683Z,26.73
2022-08-03T15:54:54.788Z,26.73
2022-08-03T15:57:23.471Z,27.35
2022-08-03T15:59:52.120Z,26.70
2022-08-03T16:02:20.294Z,27.19
2022-08-03T16:04:48.479Z,27.63
2022-08-03T16:07:36.611Z,26.99
2022-08-03T16:10:05.230Z,26.83
2022-08-03T16:12:33.250Z,27.22
2022-08-03T16:15:02.657Z,27.04
2022-08-03T16:17:31.599Z,27.06
2022-08-03T16:19:59.737Z,27.17
2022-08-03T16:22:28.221Z,27.55
2022-08-03T16:24:56.404Z,27.79
2022-08-03T16:27:25.076Z,27.59
2022-08-03T16:30:16.688Z,27.79
2022-08-03T16:32:45.800Z,27.96
2022-08-03T16:35:19.625Z,28.39
2022-08-03T16:37:54.599Z,28.45
2022-08-03T16:40:26.263Z,28.52
2022-08-03T16:42:54.368Z,28.74
2022-08-03T16:45:23.051Z,29.39
2022-08-03T16:48:01.602Z,29.08
2022-08-03T16:50:35.350Z,29.34
2022-08-03T16:53:09.615Z,30.03
2022-08-03T16:55:43.394Z,30.24
2022-08-03T16:58:34.953Z,29.99
2022-08-03T17:01:22.350Z,30.06
2022-08-03T17:04:03.463Z,30.32
2022-08-03T17:06:45.054Z,29.94
2022-08-03T17:09:18.149Z,30.25
2022-08-03T17:11:49.133Z,30.87
2022-08-03T17:14:29.387Z,30.85
2022-08-03T17:17:01.788Z,31.14
2022-08-03T17:19:35.266Z,31.19
2022-08-03T17:22:11.005Z,31.11
2022-08-03T17:24:50.251Z,30.90
2022-08-03T17:28:49.454Z,31.53
2022-08-03T17:30:13.494Z,32.47
2022-08-03T17:32:52.636Z,32.43
2022-08-03T17:35:36.416Z,34.03
2022-08-03T17:38:12.064Z,34.70
2022-08-03T17:40:50.017Z,34.91
2022-08-03T17:44:13.141Z,34.44
2022-08-03T17:46:10.912Z,35.11
2022-08-03T17:48:41.397Z,36.10
2022-08-03T17:51:17.303Z,36.69
2022-08-03T17:53:53.013Z,37.13
2022-08-03T17:56:40.748Z,38.15
2022-08-03T17:59:50.297Z,38.76
2022-08-03T18:02:40.812Z,37.75
2022-08-03T18:08:11.600Z,38.81
2022-08-03T18:10:49.842Z,39.78
2022-08-03T18:13:24.295Z,39.82
2022-08-03T18:16:00.338Z,40.00
2022-08-03T18:18:40.897Z,39.90
2022-08-03T18:21:16.894Z,40.20
2022-08-03T18:23:50.932Z,40.62
2022-08-03T18:26:20.575Z,40.91
2022-08-03T18:28:53.049Z,41.24
2022-08-03T18:32:00.520Z,41.66
2022-08-03T18:34:31.999Z,41.97
2022-08-03T18:37:07.270Z,42.63
2022-08-03T18:39:50.239Z,42.54
2022-08-03T18:42:26.265Z,42.74
2022-08-03T18:44:56.459Z,43.05
2022-08-03T18:48:21.708Z,43.13
2022-08-03T18:51:06.791Z,43.93
2022-08-03T18:54:02.198Z,43.84
2022-08-03T18:56:48.517Z,43.58
2022-08-03T18:59:30.284Z,43.68
2022-08-03T19:02:09.211Z,43.90
2022-08-03T19:04:47.566Z,44.46
2022-08-03T19:10:11.108Z,44.76
2022-08-03T19:13:19.073Z,45.17
2022-08-03T19:16:04.211Z,45.89
2022-08-03T19:18:37.939Z,45.89
2022-08-03T19:21:12.741Z,46.12
2022-08-03T19:23:47.594Z,46.23
2022-08-03T19:26:29.985Z,46.13
2022-08-03T19:28:59.737Z,46.22
2022-08-03T19:31:30.949Z,46.45
2022-08-03T19:34:01.240Z,46.87
2022-08-03T19:36:31.486Z,46.59
2022-08-03T19:39:00.026Z,46.83
2022-08-03T19:41:41.925Z,47.57
2022-08-03T19:44:19.807Z,47.86
2022-08-03T19:47:01.457Z,47.77
2022-08-03T19:49:57.685Z,47.55
2022-08-03T19:52:31.139Z,47.52
2022-08-03T19:55:04.852Z,47.98
2022-08-03T19:57:35.738Z,48.43
2022-08-03T20:00:08.203Z,48.98
2022-08-03T20:02:36.539Z,49.09
2022-08-03T20:05:05.802Z,49.04
2022-08-03T20:07:47.911Z,49.30
2022-08-03T20:10:18.162Z,49.64
2022-08-03T20:12:48.499Z,50.23
2022-08-03T20:15:30.967Z,50.74
2022-08-03T20:18:00.668Z,50.73
2022-08-03T20:20:33.256Z,50.96
2022-08-03T20:23:06.920Z,51.14
2022-08-03T20:25:48.643Z,51.67
2022-08-03T20:28:26.799Z,52.00
2022-08-03T20:30:55.536Z,52.01
2022-08-03T20:33:27.969Z,52.02
2022-08-03T20:36:12.261Z,52.01
2022-08-03T20:38:47.225Z,52.01
2022-08-03T20:41:17.089Z,51.73
2022-08-03T20:43:46.619Z,52.33
2022-08-03T20:46:32.890Z,52.81
2022-08-03T20:49:07.137Z,53.00
2022-08-03T20:51:49.973Z,53.28
2022-08-03T20:54:29.946Z,53.69
2022-08-03T20:57:04.345Z,53.52
2022-08-03T20:59:50.167Z,53.90
2022-08-03T21:02:30.496Z,54.24
2022-08-03T21:05:02.948Z,53.99
2022-08-03T21:08:03.702Z,54.53
2022-08-03T21:10:30.539Z,54.79
2022-08-03T21:13:01.364Z,44.96
2022-08-03T21:13:04.405Z,38.09
2022-08-03T21:13:18.859Z,54.72
2022-08-03T21:16:11.565Z,54.55
2022-08-03T21:18:45.587Z,54.72
2022-08-03T21:21:16.315Z,55.09
2022-08-03T21:23:48.168Z,55.43
2022-08-03T21:26:24.619Z,55.74
2022-08-03T21:28:55.744Z,55.84
2022-08-03T21:31:26.565Z,55.70
2022-08-03T21:34:01.089Z,55.69
2022-08-03T21:36:32.441Z,56.30
2022-08-03T21:39:01.944Z,56.44
2022-08-03T21:41:32.193Z,56.21
2022-08-03T21:44:01.679Z,56.30
2022-08-03T21:46:44.331Z,56.34
2022-08-03T21:50:04.980Z,56.50
2022-08-03T21:52:05.928Z,56.54
2022-08-03T21:54:37.070Z,56.46
2022-08-03T21:57:13.425Z,56.70
2022-08-03T21:59:51.728Z,57.18
2022-08-03T22:02:24.516Z,57.35
2022-08-03T22:04:56.268Z,57.38
2022-08-03T22:07:27.779Z,57.65
2022-08-03T22:09:58.118Z,58.05
2022-08-03T22:12:28.191Z,58.28
2022-08-03T22:15:01.346Z,58.58
2022-08-03T22:17:55.787Z,58.53
2022-08-03T22:20:22.028Z,58.38
2022-08-03T22:22:55.896Z,58.60
2022-08-03T22:25:35.038Z,58.05
2022-08-03T22:28:07.762Z,57.24
2022-08-03T22:30:37.189Z,57.51
2022-08-03T22:33:11.379Z,57.85
2022-08-03T22:35:48.283Z,58.19
2022-08-03T22:38:18.889Z,58.48
2022-08-03T22:40:49.271Z,58.70
2022-08-03T22:43:17.585Z,58.98
2022-08-03T22:46:10.448Z,58.65
2022-08-03T22:48:40.638Z,58.44
2022-08-03T22:51:10.235Z,58.97
2022-08-03T22:53:39.736Z,59.12
2022-08-03T22:56:09.130Z,58.80
2022-08-03T22:58:37.518Z,59.14
2022-08-03T23:01:12.006Z,59.48
2022-08-03T23:04:01.282Z,59.89
2022-08-03T23:06:38.363Z,60.12
2022-08-03T23:09:13.698Z,60.05
2022-08-03T23:11:45.409Z,59.55
2022-08-03T23:14:16.956Z,59.28
2022-08-03T23:16:47.481Z,60.05
2022-08-03T23:19:25.179Z,60.29
2022-08-03T23:22:02.762Z,60.51
2022-08-03T23:24:39.144Z,60.55
2022-08-03T23:27:09.288Z,60.73
2022-08-03T23:29:39.269Z,60.87
2022-08-03T23:32:08.064Z,60.95
2022-08-03T23:34:58.257Z,61.07
2022-08-03T23:37:27.248Z,61.45
2022-08-03T23:39:57.491Z,61.92
2022-08-03T23:42:26.357Z,61.89
2022-08-03T23:44:59.293Z,61.98
2022-08-03T23:47:46.563Z,62.30
2022-08-03T23:50:16.998Z,62.05
2022-08-03T23:53:07.692Z,62.24
2022-08-03T23:56:11.109Z,62.12
2022-08-03T23:59:04.560Z,62.32
